createdAt,value
2018-06-14T00:01:50.254Z,55.10
2018-06-14T00:04:18.439Z,55.10
2018-06-14T00:06:46.620Z,55.00
2018-06-14T00:09:14.809Z,55.20
2018-06-14T00:11:43.278Z,55.30
2018-06-14T00:14:11.478Z,55.30
2018-06-14T00:16:39.682Z,55.30
2018-06-14T00:19:07.925Z,55.30
2018-06-14T00:21:36.143Z,55.30
2018-06-14T00:24:04.336Z,55.30
2018-06-14T00:26:32.529Z,55.50
2018-06-14T00:29:00.720Z,55.50
2018-06-14T00:31:28.918Z,55.50
2018-06-14T00:33:57.126Z,55.50
2018-06-14T00:36:25.322Z,55.50
2018-06-14T00:38:53.517Z,55.60
2018-06-14T00:41:21.718Z,55.60
2018-06-14T00:43:49.920Z,55.60
2018-06-14T00:46:18.116Z,55.60
2018-06-14T00:48:46.310Z,55.60
2018-06-14T00:51:14.506Z,55.60
2018-06-14T00:53:42.716Z,55.60
2018-06-14T00:56:10.908Z,55.70
2018-06-14T00:58:39.116Z,55.70
2018-06-14T01:01:07.297Z,55.80
2018-06-14T01:03:35.522Z,55.80
2018-06-14T01:06:03.716Z,55.70
2018-06-14T01:08:32.069Z,55.70
2018-06-14T01:11:00.270Z,56.30
2018-06-14T01:13:28.477Z,55.80
2018-06-14T01:15:56.657Z,55.80
2018-06-14T01:18:24.848Z,56.00
2018-06-14T01:20:53.070Z,55.80
2018-06-14T01:23:21.253Z,55.90
2018-06-14T01:25:49.461Z,55.90
2018-06-14T01:28:17.722Z,56.00
2018-06-14T01:30:45.973Z,56.10
2018-06-14T01:33:14.166Z,56.20
2018-06-14T01:35:42.360Z,56.40
2018-06-14T01:38:25.797Z,56.40
2018-06-14T01:40:54.689Z,56.60
2018-06-14T01:43:23.237Z,56.70
2018-06-14T01:45:51.444Z,56.70
2018-06-14T01:48:19.641Z,56.70
2018-06-14T01:50:48.253Z,56.80
2018-06-14T01:53:16.866Z,56.80
2018-06-14T01:55:45.090Z,56.90
2018-06-14T01:58:13.271Z,56.90
2018-06-14T02:00:41.533Z,57.10
2018-06-14T02:03:09.755Z,57.40
2018-06-14T02:05:37.949Z,57.60
2018-06-14T02:10:34.091Z,58.00
2018-06-14T02:15:30.292Z,58.40
2018-06-14T02:17:59.328Z,58.50
2018-06-14T02:20:27.850Z,58.60
2018-06-14T02:22:56.044Z,58.60
2018-06-14T02:25:24.567Z,58.60
2018-06-14T02:27:52.805Z,58.60
2018-06-14T02:30:21.005Z,58.70
2018-06-14T02:32:49.196Z,58.80
2018-06-14T02:37:45.321Z,59.10
2018-06-14T02:40:13.640Z,59.30
2018-06-14T02:42:42.832Z,59.30
2018-06-14T02:45:11.027Z,59.40
2018-06-14T02:47:39.259Z,59.70
2018-06-14T02:50:08.148Z,59.80
2018-06-14T02:55:04.725Z,59.80
2018-06-14T02:57:32.910Z,59.70
2018-06-14T03:00:01.093Z,59.60
2018-06-14T03:02:29.542Z,59.40
2018-06-14T03:04:57.884Z,59.30
2018-06-14T03:07:31.432Z,59.30
2018-06-14T03:09:59.657Z,59.20
2018-06-14T03:12:27.984Z,59.30
2018-06-14T03:14:56.193Z,59.40
2018-06-14T03:17:24.366Z,59.60
2018-06-14T03:19:53.207Z,59.70
2018-06-14T03:22:22.793Z,59.80
2018-06-14T03:24:50.984Z,59.90
2018-06-14T03:27:19.156Z,60.00
2018-06-14T03:29:47.731Z,60.10
2018-06-14T03:32:15.907Z,60.20
2018-06-14T03:34:44.107Z,61.00
2018-06-14T03:37:12.301Z,60.40
2018-06-14T03:39:40.632Z,60.70
2018-06-14T03:42:12.932Z,60.90
2018-06-14T03:44:41.204Z,61.00
2018-06-14T03:47:09.661Z,61.10
2018-06-14T03:49:41.216Z,61.20
2018-06-14T03:52:10.337Z,61.30
2018-06-14T03:54:38.528Z,61.40
2018-06-14T03:57:07.138Z,61.40
2018-06-14T03:59:35.744Z,61.50
2018-06-14T04:02:04.404Z,61.60
2018-06-14T04:04:32.592Z,61.70
2018-06-14T04:07:00.809Z,61.80
2018-06-14T04:09:28.988Z,61.80
2018-06-14T04:11:57.462Z,61.70
2018-06-14T04:14:25.809Z,61.80
2018-06-14T04:16:54.298Z,61.60
2018-06-14T04:19:22.700Z,61.50
2018-06-14T04:21:51.212Z,61.50
2018-06-14T04:24:19.608Z,61.60
2018-06-14T04:26:48.036Z,61.40
2018-06-14T04:29:16.881Z,61.40
2018-06-14T04:31:45.288Z,61.40
2018-06-14T04:34:13.929Z,61.50
2018-06-14T04:36:42.502Z,61.50
2018-06-14T04:39:11.295Z,61.50
2018-06-14T04:41:39.825Z,61.50
2018-06-14T04:44:08.256Z,61.60
2018-06-14T04:46:36.691Z,61.60
2018-06-14T04:49:05.177Z,61.70
2018-06-14T04:51:38.872Z,61.70
2018-06-14T04:54:07.357Z,61.60
2018-06-14T04:56:36.825Z,61.70
2018-06-14T04:59:05.644Z,61.70
2018-06-14T05:01:34.042Z,61.70
2018-06-14T05:04:02.559Z,61.80
2018-06-14T05:06:31.585Z,62.60
2018-06-14T05:09:00.186Z,61.80
2018-06-14T05:11:28.567Z,61.60
2018-06-14T05:13:57.262Z,61.50
2018-06-14T05:16:27.784Z,61.40
2018-06-14T05:18:56.370Z,61.60
2018-06-14T05:21:25.038Z,61.60
2018-06-14T05:26:21.817Z,61.60
2018-06-14T05:28:50.246Z,61.50
2018-06-14T05:31:18.835Z,61.40
2018-06-14T05:33:47.420Z,61.20
2018-06-14T05:36:16.141Z,61.20
2018-06-14T05:38:44.508Z,61.20
2018-06-14T05:41:13.044Z,61.10
2018-06-14T05:43:41.375Z,61.00
2018-06-14T05:46:09.825Z,60.70
2018-06-14T05:48:38.153Z,60.30
2018-06-14T05:53:35.059Z,59.80
2018-06-14T05:56:03.571Z,59.30
2018-06-14T05:58:31.857Z,59.10
2018-06-14T06:01:00.189Z,58.90
2018-06-14T06:03:28.596Z,58.60
2018-06-14T06:05:56.816Z,58.40
2018-06-14T06:08:25.049Z,58.00
2018-06-14T06:10:53.632Z,57.80
2018-06-14T06:13:21.873Z,57.70
2018-06-14T06:15:50.268Z,57.60
2018-06-14T06:20:46.806Z,57.10
2018-06-14T06:25:43.876Z,56.00
2018-06-14T06:28:12.181Z,55.50
2018-06-14T06:30:40.810Z,55.00
2018-06-14T06:33:09.322Z,54.60
2018-06-14T06:35:37.701Z,54.40
2018-06-14T06:38:06.472Z,54.10
2018-06-14T06:40:35.021Z,53.90
2018-06-14T06:43:03.208Z,53.90
2018-06-14T06:45:31.633Z,53.60
2018-06-14T06:48:00.296Z,53.50
2018-06-14T06:50:28.492Z,53.50
2018-06-14T06:52:56.672Z,53.40
2018-06-14T06:55:24.881Z,53.40
2018-06-14T06:57:53.259Z,53.50
2018-06-14T07:00:21.626Z,53.20
2018-06-14T07:02:49.829Z,52.90
2018-06-14T07:05:18.024Z,52.70
2018-06-14T07:07:46.220Z,52.40
2018-06-14T07:12:42.728Z,51.90
2018-06-14T07:15:10.924Z,51.40
2018-06-14T07:17:39.275Z,51.00
2018-06-14T07:20:07.496Z,51.00
2018-06-14T07:22:35.925Z,50.80
2018-06-14T07:25:04.322Z,50.50
2018-06-14T07:27:32.704Z,50.20
2018-06-14T07:30:01.256Z,50.00
2018-06-14T07:32:29.861Z,49.80
2018-06-14T07:34:58.292Z,49.70
2018-06-14T07:37:27.417Z,49.20
2018-06-14T07:39:56.209Z,49.00
2018-06-14T07:42:24.629Z,48.90
2018-06-14T07:44:53.051Z,48.40
2018-06-14T07:47:21.656Z,48.40
2018-06-14T07:49:50.027Z,48.30
2018-06-14T07:52:18.370Z,48.10
2018-06-14T07:54:46.951Z,48.00
2018-06-14T07:59:43.320Z,47.60
2018-06-14T08:02:11.685Z,47.40
2018-06-14T08:04:40.029Z,47.00
2018-06-14T08:07:08.393Z,46.90
2018-06-14T08:09:36.878Z,46.80
2018-06-14T08:12:05.153Z,46.40
2018-06-14T08:14:33.459Z,46.30
2018-06-14T08:17:01.738Z,46.30
2018-06-14T08:19:30.137Z,46.30
2018-06-14T08:21:58.340Z,46.30
2018-06-14T08:24:26.579Z,45.90
2018-06-14T08:26:54.838Z,45.60
2018-06-14T08:29:23.352Z,45.40
2018-06-14T08:31:51.873Z,45.20
2018-06-14T08:34:20.240Z,45.80
2018-06-14T08:36:48.715Z,45.20
2018-06-14T08:39:16.928Z,45.10
2018-06-14T08:41:45.134Z,45.00
2018-06-14T08:44:14.101Z,44.90
2018-06-14T08:46:42.536Z,44.90
2018-06-14T08:49:10.713Z,44.60
2018-06-14T08:51:38.913Z,44.60
2018-06-14T08:54:07.090Z,44.60
2018-06-14T08:56:35.301Z,44.40
2018-06-14T08:59:03.528Z,44.60
2018-06-14T09:01:32.268Z,43.90
2018-06-14T09:04:00.468Z,43.90
2018-06-14T09:06:28.657Z,44.00
2018-06-14T09:08:56.856Z,43.90
2018-06-14T09:11:25.065Z,43.60
2018-06-14T09:13:53.270Z,43.50
2018-06-14T09:16:21.452Z,43.70
2018-06-14T09:18:49.689Z,43.70
2018-06-14T09:21:18.100Z,43.60
2018-06-14T09:23:46.300Z,43.80
2018-06-14T09:26:14.498Z,44.10
2018-06-14T09:28:42.893Z,43.90
2018-06-14T09:31:11.180Z,43.50
2018-06-14T09:33:39.385Z,43.30
2018-06-14T09:36:07.613Z,43.20
2018-06-14T09:38:35.809Z,43.20
2018-06-14T09:41:03.996Z,43.20
2018-06-14T09:43:32.180Z,43.10
2018-06-14T09:46:00.368Z,43.20
2018-06-14T09:48:28.572Z,43.30
2018-06-14T09:50:56.758Z,43.20
2018-06-14T09:53:24.978Z,43.40
2018-06-14T09:55:53.176Z,43.70
2018-06-14T09:58:21.363Z,43.80
2018-06-14T10:00:49.550Z,43.90
2018-06-14T10:03:17.748Z,43.70
2018-06-14T10:05:45.948Z,43.50
2018-06-14T10:08:14.160Z,43.50
2018-06-14T10:13:10.309Z,43.80
2018-06-14T10:15:38.704Z,44.00
2018-06-14T10:18:06.905Z,44.00
2018-06-14T10:20:35.093Z,43.80
2018-06-14T10:23:03.312Z,43.80
2018-06-14T10:25:31.505Z,43.70
2018-06-14T10:27:59.880Z,43.60
2018-06-14T10:30:28.067Z,43.50
2018-06-14T10:32:56.258Z,43.40
2018-06-14T10:35:24.584Z,43.30
2018-06-14T10:37:52.771Z,43.40
2018-06-14T10:40:20.961Z,43.30
2018-06-14T10:42:49.143Z,43.30
2018-06-14T10:45:17.532Z,43.50
2018-06-14T10:47:45.985Z,43.60
2018-06-14T10:50:14.180Z,43.50
2018-06-14T10:52:42.534Z,43.30
2018-06-14T10:55:10.737Z,43.10
2018-06-14T10:57:38.923Z,43.10
2018-06-14T11:00:07.159Z,43.30
2018-06-14T11:02:35.419Z,43.20
2018-06-14T11:05:03.664Z,43.20
2018-06-14T11:07:31.868Z,43.20
2018-06-14T11:10:00.263Z,43.00
2018-06-14T11:12:28.948Z,42.90
2018-06-14T11:14:57.352Z,43.10
2018-06-14T11:17:25.921Z,43.10
2018-06-14T11:19:54.160Z,43.10
2018-06-14T11:22:22.491Z,43.20
2018-06-14T11:24:51.057Z,43.40
2018-06-14T11:27:19.833Z,43.70
2018-06-14T11:29:49.036Z,43.80
2018-06-14T11:32:17.621Z,43.90
2018-06-14T11:34:46.648Z,43.80
2018-06-14T11:37:15.117Z,43.80
2018-06-14T11:39:43.452Z,43.70
2018-06-14T11:42:12.092Z,43.40
2018-06-14T11:44:40.632Z,43.10
2018-06-14T11:47:08.880Z,43.00
2018-06-14T11:49:37.068Z,42.80
2018-06-14T11:52:05.329Z,42.70
2018-06-14T11:54:34.293Z,42.60
2018-06-14T11:57:02.621Z,42.70
2018-06-14T11:59:30.947Z,42.80
2018-06-14T12:02:00.163Z,42.80
2018-06-14T12:04:28.741Z,42.80
2018-06-14T12:06:57.014Z,43.50
2018-06-14T12:09:25.628Z,43.20
2018-06-14T12:11:54.228Z,43.30
2018-06-14T12:14:22.665Z,43.30
2018-06-14T12:16:51.152Z,43.40
2018-06-14T12:19:19.561Z,43.40
2018-06-14T12:21:47.852Z,43.30
2018-06-14T12:24:16.357Z,43.40
2018-06-14T12:26:44.660Z,43.40
2018-06-14T12:29:12.845Z,43.30
2018-06-14T12:31:41.063Z,43.50
2018-06-14T12:34:09.461Z,43.70
2018-06-14T12:36:37.670Z,43.80
2018-06-14T12:39:07.779Z,44.00
2018-06-14T12:41:35.973Z,44.10
2018-06-14T12:44:04.637Z,44.10
2018-06-14T12:46:32.872Z,44.20
2018-06-14T12:49:01.518Z,44.20
2018-06-14T12:51:29.716Z,44.20
2018-06-14T12:53:57.933Z,44.30
2018-06-14T12:56:26.134Z,44.20
2018-06-14T12:58:54.343Z,44.40
2018-06-14T13:01:22.714Z,44.50
2018-06-14T13:03:50.921Z,44.60
2018-06-14T13:06:19.276Z,44.60
2018-06-14T13:08:47.473Z,44.60
2018-06-14T13:11:15.710Z,44.50
2018-06-14T13:16:11.909Z,44.00
2018-06-14T13:18:40.423Z,43.90
2018-06-14T13:21:08.837Z,43.80
2018-06-14T13:23:37.301Z,43.70
2018-06-14T13:26:05.553Z,43.50
2018-06-14T13:28:33.820Z,43.60
2018-06-14T13:31:02.273Z,43.60
2018-06-14T13:33:30.613Z,43.50
2018-06-14T13:35:58.935Z,43.50
2018-06-14T13:38:27.121Z,43.40
2018-06-14T13:40:55.316Z,43.40
2018-06-14T13:45:51.670Z,43.50
2018-06-14T13:48:19.880Z,43.70
2018-06-14T13:50:48.065Z,43.50
2018-06-14T13:53:16.292Z,43.40
2018-06-14T13:58:12.520Z,43.20
2018-06-14T14:00:40.758Z,43.20
2018-06-14T14:03:08.957Z,43.20
2018-06-14T14:05:37.152Z,43.20
2018-06-14T14:08:05.390Z,43.30
2018-06-14T14:10:33.597Z,43.30
2018-06-14T14:13:01.785Z,43.20
2018-06-14T14:15:30.175Z,42.80
2018-06-14T14:17:58.396Z,42.80
2018-06-14T14:20:26.580Z,42.90
2018-06-14T14:22:54.797Z,43.00
2018-06-14T14:25:22.985Z,43.00
2018-06-14T14:27:51.163Z,42.80
2018-06-14T14:30:19.358Z,42.40
2018-06-14T14:32:47.565Z,42.30
2018-06-14T14:35:15.769Z,42.10
2018-06-14T14:37:43.949Z,42.00
2018-06-14T14:40:12.201Z,41.70
2018-06-14T14:42:40.402Z,41.50
2018-06-14T14:45:08.607Z,41.40
2018-06-14T14:47:36.842Z,41.60
2018-06-14T14:50:04.995Z,41.60
2018-06-14T14:55:01.132Z,41.30
2018-06-14T14:57:29.328Z,41.50
2018-06-14T14:59:57.536Z,41.70
2018-06-14T15:02:25.755Z,42.30
2018-06-14T15:04:53.995Z,41.80
2018-06-14T15:07:22.165Z,41.80
2018-06-14T15:09:50.364Z,42.40
2018-06-14T15:12:18.549Z,41.70
2018-06-14T15:14:46.753Z,41.70
2018-06-14T15:17:14.944Z,41.70
2018-06-14T15:19:43.284Z,41.60
2018-06-14T15:22:11.545Z,41.60
2018-06-14T15:24:39.954Z,41.60
2018-06-14T15:27:08.157Z,41.60
2018-06-14T15:29:36.684Z,41.70
2018-06-14T15:32:05.081Z,41.70
2018-06-14T15:34:33.272Z,41.70
2018-06-14T15:37:01.469Z,41.70
2018-06-14T15:39:29.651Z,41.80
2018-06-14T15:41:57.869Z,41.80
2018-06-14T15:46:53.997Z,41.50
2018-06-14T15:49:22.198Z,41.50
2018-06-14T15:51:50.453Z,41.80
2018-06-14T15:54:18.726Z,41.80
2018-06-14T15:56:46.853Z,41.70
2018-06-14T15:59:15.963Z,41.50
2018-06-14T16:01:44.180Z,41.40
2018-06-14T16:04:12.378Z,41.00
2018-06-14T16:06:40.577Z,40.60
2018-06-14T16:09:09.932Z,40.40
2018-06-14T16:11:38.204Z,40.40
2018-06-14T16:14:06.782Z,40.40
2018-06-14T16:16:34.978Z,40.40
2018-06-14T16:19:03.368Z,40.50
2018-06-14T16:21:31.564Z,40.60
2018-06-14T16:23:59.764Z,40.90
2018-06-14T16:26:27.957Z,41.10
2018-06-14T16:28:56.180Z,41.40
2018-06-14T16:31:24.433Z,41.50
2018-06-14T16:33:52.807Z,41.70
2018-06-14T16:36:20.991Z,41.80
2018-06-14T16:38:49.201Z,41.80
2018-06-14T16:41:17.404Z,41.80
2018-06-14T16:46:13.541Z,42.00
2018-06-14T16:48:41.729Z,42.20
2018-06-14T16:51:09.923Z,41.80
2018-06-14T16:53:38.133Z,42.20
2018-06-14T16:56:06.402Z,42.30
2018-06-14T16:58:34.829Z,42.50
2018-06-14T17:01:03.031Z,42.60
2018-06-14T17:03:31.224Z,42.80
2018-06-14T17:05:59.417Z,42.80
2018-06-14T17:08:27.618Z,42.90
2018-06-14T17:10:55.845Z,42.90
2018-06-14T17:13:24.105Z,43.00
2018-06-14T17:15:52.251Z,43.20
2018-06-14T17:18:20.446Z,43.30
2018-06-14T17:20:48.625Z,43.30
2018-06-14T17:23:16.812Z,43.30
2018-06-14T17:25:45.012Z,43.50
2018-06-14T17:28:13.202Z,43.50
2018-06-14T17:30:41.400Z,43.40
2018-06-14T17:33:09.573Z,43.80
2018-06-14T17:35:37.785Z,43.30
2018-06-14T17:38:05.985Z,43.30
2018-06-14T17:40:34.192Z,43.30
2018-06-14T17:45:30.324Z,43.30
2018-06-14T17:47:58.534Z,43.40
2018-06-14T17:50:26.716Z,43.90
2018-06-14T17:52:54.900Z,43.60
2018-06-14T17:55:23.096Z,43.80
2018-06-14T17:57:51.272Z,43.90
2018-06-14T18:00:19.496Z,44.20
2018-06-14T18:02:47.743Z,44.40
2018-06-14T18:05:15.868Z,44.60
2018-06-14T18:07:44.264Z,44.80
2018-06-14T18:10:12.443Z,45.00
2018-06-14T18:12:40.637Z,45.40
2018-06-14T18:15:08.952Z,45.70
2018-06-14T18:17:37.166Z,45.90
2018-06-14T18:20:05.395Z,46.20
2018-06-14T18:22:33.583Z,46.40
2018-06-14T18:25:01.805Z,46.50
2018-06-14T18:27:30.006Z,46.60
2018-06-14T18:32:26.171Z,47.50
2018-06-14T18:34:54.360Z,47.00
2018-06-14T18:37:22.553Z,47.10
2018-06-14T18:39:50.736Z,47.30
2018-06-14T18:42:18.932Z,47.60
2018-06-14T18:44:47.120Z,48.20
2018-06-14T18:49:43.438Z,48.00
2018-06-14T18:52:11.632Z,48.10
2018-06-14T18:54:39.799Z,48.20
2018-06-14T18:57:08.014Z,48.30
2018-06-14T18:59:36.204Z,48.30
2018-06-14T19:02:04.405Z,48.30
2018-06-14T19:04:32.604Z,48.30
2018-06-14T19:07:00.791Z,48.20
2018-06-14T19:09:28.982Z,48.40
2018-06-14T19:11:57.156Z,48.40
2018-06-14T19:14:25.361Z,48.60
2018-06-14T19:16:53.552Z,48.60
2018-06-14T19:19:21.756Z,48.70
2018-06-14T19:21:49.949Z,48.80
2018-06-14T19:24:18.140Z,48.90
2018-06-14T19:26:46.316Z,49.10
2018-06-14T19:29:14.560Z,49.20
2018-06-14T19:31:42.696Z,49.30
2018-06-14T19:34:10.925Z,49.40
2018-06-14T19:36:39.104Z,49.60
2018-06-14T19:39:08.382Z,49.60
2018-06-14T19:41:36.573Z,49.80
2018-06-14T19:44:04.776Z,50.00
2018-06-14T19:46:32.953Z,50.30
2018-06-14T19:49:01.132Z,50.40
2018-06-14T19:51:29.350Z,50.40
2018-06-14T19:56:25.492Z,50.60
2018-06-14T19:58:53.788Z,50.70
2018-06-14T20:01:21.977Z,50.70
2018-06-14T20:03:50.168Z,50.80
2018-06-14T20:06:18.365Z,50.80
2018-06-14T20:08:46.796Z,50.90
2018-06-14T20:11:14.986Z,51.00
2018-06-14T20:13:43.220Z,51.00
2018-06-14T20:16:11.441Z,51.10
2018-06-14T20:18:39.633Z,51.30
2018-06-14T20:21:07.871Z,51.40
2018-06-14T20:23:36.004Z,51.80
2018-06-14T20:26:04.184Z,52.10
2018-06-14T20:31:00.308Z,52.40
2018-06-14T20:33:28.508Z,52.60
2018-06-14T20:35:56.704Z,52.70
2018-06-14T20:38:24.881Z,53.10
2018-06-14T20:40:53.068Z,53.30
2018-06-14T20:43:21.260Z,53.50
2018-06-14T20:45:49.561Z,53.60
2018-06-14T20:48:17.737Z,53.90
2018-06-14T20:50:45.934Z,53.90
2018-06-14T20:53:14.116Z,53.90
2018-06-14T20:55:42.321Z,54.10
2018-06-14T20:58:10.523Z,54.40
2018-06-14T21:00:38.719Z,54.60
2018-06-14T21:05:34.889Z,54.80
2018-06-14T21:08:03.089Z,54.90
2018-06-14T21:10:31.516Z,55.10
2018-06-14T21:12:59.696Z,55.20
2018-06-14T21:15:27.907Z,55.30
2018-06-14T21:17:56.096Z,55.50
2018-06-14T21:20:24.288Z,55.50
2018-06-14T21:22:52.645Z,55.60
2018-06-14T21:25:20.825Z,55.90
2018-06-14T21:27:49.027Z,56.00
2018-06-14T21:30:17.196Z,56.10
2018-06-14T21:32:45.385Z,56.20
2018-06-14T21:35:13.592Z,56.20
2018-06-14T21:37:41.781Z,56.30
2018-06-14T21:40:09.971Z,56.50
2018-06-14T21:42:38.158Z,56.50
2018-06-14T21:45:06.378Z,56.70
2018-06-14T21:47:34.573Z,56.90
2018-06-14T21:50:02.768Z,57.00
2018-06-14T21:52:30.950Z,56.90
2018-06-14T21:54:59.120Z,56.90
2018-06-14T21:57:27.457Z,57.00
2018-06-14T21:59:55.636Z,57.10
2018-06-14T22:02:23.826Z,57.20
2018-06-14T22:04:52.025Z,57.30
2018-06-14T22:07:20.216Z,57.40
2018-06-14T22:09:48.403Z,57.60
2018-06-14T22:12:16.580Z,57.70
2018-06-14T22:14:44.778Z,57.80
2018-06-14T22:17:12.971Z,58.00
2018-06-14T22:19:41.548Z,58.00
2018-06-14T22:22:09.721Z,57.90
2018-06-14T22:24:38.113Z,58.10
2018-06-14T22:27:06.305Z,58.20
2018-06-14T22:29:34.496Z,58.30
2018-06-14T22:34:41.973Z,59.00
2018-06-14T22:37:10.161Z,58.60
2018-06-14T22:39:38.358Z,58.60
2018-06-14T22:42:06.552Z,58.60
2018-06-14T22:44:34.798Z,58.70
2018-06-14T22:47:02.932Z,58.80
2018-06-14T22:49:31.115Z,59.00
2018-06-14T22:53:10.020Z,58.90
2018-06-14T22:55:38.330Z,58.90
2018-06-14T22:58:06.517Z,58.80
2018-06-14T23:01:42.476Z,58.90
2018-06-14T23:04:11.915Z,59.10
2018-06-14T23:06:40.116Z,59.00
2018-06-14T23:10:21.982Z,59.20
2018-06-14T23:15:18.636Z,59.40
2018-06-14T23:17:47.646Z,59.30
2018-06-14T23:20:20.101Z,59.50
2018-06-14T23:22:49.411Z,59.60
2018-06-14T23:25:18.457Z,59.50
2018-06-14T23:27:46.684Z,59.60
2018-06-14T23:30:14.901Z,59.60
2018-06-14T23:32:43.100Z,59.70
2018-06-14T23:35:11.281Z,59.90
2018-06-14T23:37:39.472Z,60.00
2018-06-14T23:40:07.656Z,60.00
2018-06-14T23:42:35.857Z,60.10
2018-06-14T23:45:04.090Z,60.30
2018-06-14T23:47:32.272Z,60.30
2018-06-14T23:50:01.489Z,60.40
2018-06-14T23:52:29.688Z,60.40
2018-06-14T23:54:57.868Z,60.50
2018-06-14T23:57:26.136Z,60.60
2018-06-14T23:59:54.332Z,60.60
